Time;durP1;ratioP1;P1;durP2;ratioP2;P2;SDS_P1;SDS_P2;PMS_P1;PMS_P2;Temp;Humidity;BMP_temperature;BMP_pressure;BME280_temperature;BME280_humidity;BME280_pressure;Samples;Min_cycle;Max_cycle;Signal;HPM_P1;HPM_P2
2023/08/08 00:00:23;;;;;;;2.03;1.40;;;;;;;15.68;72.43;99413.34;5090356;28;20205;-62
2023/08/08 00:02:51;;;;;;;3.72;1.63;;;;;;;15.69;72.17;99414.19;5085543;28;20203;-61
2023/08/08 00:05:19;;;;;;;1.27;1.13;;;;;;;15.66;71.98;99420.34;5094577;28;20292;-61
2023/08/08 00:07:48;;;;;;;1.63;1.27;;;;;;;15.69;71.81;99424.56;5091502;28;20691;-63
2023/08/08 00:10:16;;;;;;;4.07;1.60;;;;;;;15.66;70.88;99415.16;5087814;28;20279;-62
2023/08/08 00:12:44;;;;;;;2.08;1.48;;;;;;;15.69;70.31;99434.97;5091210;28;20323;-62
2023/08/08 00:15:12;;;;;;;1.90;1.23;;;;;;;15.70;70.06;99426.25;5092463;28;20211;-67
2023/08/08 00:17:40;;;;;;;1.85;1.23;;;;;;;15.67;69.83;99436.75;5091630;28;20296;-60
2023/08/08 00:20:09;;;;;;;2.53;1.20;;;;;;;15.64;69.36;99436.84;5088824;28;20196;-64
2023/08/08 00:22:37;;;;;;;3.00;1.40;;;;;;;15.62;69.09;99433.50;5091560;28;20197;-60
2023/08/08 00:25:08;;;;;;;3.08;1.73;;;;;;;15.62;68.93;99436.09;5089183;28;20201;-61
2023/08/08 00:27:41;;;;;;;1.33;1.13;;;;;;;15.61;69.10;99447.38;5080938;28;20201;-61
2023/08/08 00:30:10;;;;;;;2.40;1.60;;;;;;;15.58;68.61;99448.38;5083769;28;20200;-60
2023/08/08 00:32:38;;;;;;;3.20;1.55;;;;;;;15.59;68.03;99454.41;5086568;28;20285;-63
2023/08/08 00:35:07;;;;;;;2.38;1.35;;;;;;;15.60;68.06;99466.47;5094840;28;20215;-61
2023/08/08 00:37:35;;;;;;;3.10;1.52;;;;;;;15.59;67.41;99444.84;5085022;28;20663;-62
2023/08/08 00:40:03;;;;;;;4.47;1.50;;;;;;;15.60;66.50;99456.06;5089851;28;20208;-61
2023/08/08 00:42:33;;;;;;;2.35;1.30;;;;;;;15.57;66.84;99464.81;5089223;28;20288;-63
2023/08/08 00:45:03;;;;;;;3.90;1.65;;;;;;;15.50;66.90;99462.53;5093627;28;20644;-62
2023/08/08 00:47:32;;;;;;;2.10;1.25;;;;;;;15.44;66.81;99464.50;5083847;28;20655;-61
2023/08/08 00:50:01;;;;;;;4.30;1.60;;;;;;;15.42;66.69;99463.69;5086845;28;20652;-62
2023/08/08 00:52:31;;;;;;;2.70;1.35;;;;;;;15.42;66.85;99478.44;5090452;28;20212;-61
2023/08/08 00:55:01;;;;;;;5.30;2.22;;;;;;;15.38;66.55;99477.72;5093056;28;20537;-61
2023/08/08 00:57:29;;;;;;;5.05;1.42;;;;;;;15.35;66.69;99488.22;5090622;28;20204;-61
2023/08/08 00:59:59;;;;;;;4.03;1.50;;;;;;;15.36;66.79;99478.72;5094016;28;20196;-61
2023/08/08 01:02:27;;;;;;;4.00;1.63;;;;;;;15.34;66.59;99486.53;5089198;28;20208;-61
2023/08/08 01:04:55;;;;;;;3.75;1.45;;;;;;;15.35;66.29;99493.41;5092658;28;20667;-61
2023/08/08 01:07:34;;;;;;;2.47;1.55;;;;;;;15.36;66.25;99492.53;5084576;28;20682;-61
2023/08/08 01:10:08;;;;;;;3.78;1.40;;;;;;;15.32;66.38;99492.72;5094072;28;20223;-62
2023/08/08 01:12:40;;;;;;;2.95;1.52;;;;;;;15.27;67.14;99495.47;5088314;28;20239;-62
2023/08/08 01:15:11;;;;;;;3.53;1.45;;;;;;;15.26;66.58;99486.00;5094009;28;20655;-61
2023/08/08 01:17:40;;;;;;;3.25;1.38;;;;;;;15.20;67.00;99499.22;5094780;28;20223;-63
2023/08/08 01:20:10;;;;;;;1.63;1.35;;;;;;;15.13;67.21;99495.16;5090232;28;20563;-62
2023/08/08 01:22:40;;;;;;;2.67;1.40;;;;;;;15.12;67.36;99502.13;5093501;28;20223;-64
2023/08/08 01:25:11;;;;;;;5.20;1.55;;;;;;;15.13;67.51;99508.16;5094849;28;20651;-67
2023/08/08 01:27:39;;;;;;;3.67;1.83;;;;;;;15.09;67.59;99511.75;5092035;28;20258;-65
2023/08/08 01:30:09;;;;;;;6.25;1.83;;;;;;;15.05;67.20;99515.38;5092514;28;20587;-62
2023/08/08 01:32:37;;;;;;;1.77;1.30;;;;;;;15.03;67.28;99519.81;5097795;28;20197;-62
2023/08/08 01:35:07;;;;;;;3.17;1.50;;;;;;;15.01;67.59;99521.59;5089137;28;20204;-61
2023/08/08 01:37:40;;;;;;;3.20;2.00;;;;;;;14.92;67.58;99520.22;5086404;28;20648;-61
2023/08/08 01:40:13;;;;;;;3.57;1.70;;;;;;;14.90;67.79;99525.44;5092842;28;20651;-64
2023/08/08 01:42:43;;;;;;;2.95;1.45;;;;;;;14.88;67.89;99522.06;5092808;28;20683;-62
2023/08/08 01:45:12;;;;;;;3.90;1.38;;;;;;;14.91;67.61;99519.38;5090889;28;20205;-64
2023/08/08 01:47:41;;;;;;;4.13;1.63;;;;;;;14.86;67.55;99531.66;5093015;28;20200;-62
2023/08/08 01:50:10;;;;;;;2.40;1.33;;;;;;;14.83;67.75;99536.94;5094671;28;20207;-61
2023/08/08 01:52:38;;;;;;;5.70;1.60;;;;;;;14.87;67.57;99537.69;5093514;28;20228;-63
2023/08/08 01:55:07;;;;;;;3.75;1.80;;;;;;;14.90;67.42;99534.97;5095167;28;20193;-60
2023/08/08 01:57:37;;;;;;;3.15;1.60;;;;;;;14.88;67.52;99536.78;5094569;28;20213;-62
2023/08/08 02:00:06;;;;;;;3.13;1.40;;;;;;;14.85;67.11;99534.31;5093646;28;20551;-63
2023/08/08 02:02:35;;;;;;;3.10;1.20;;;;;;;14.88;67.04;99539.38;5084962;28;20236;-61
2023/08/08 02:05:04;;;;;;;4.10;1.73;;;;;;;14.81;66.97;99536.16;5092756;28;20262;-63
2023/08/08 02:07:32;;;;;;;3.20;1.67;;;;;;;14.84;67.29;99542.97;5084924;28;20200;-61
2023/08/08 02:10:00;;;;;;;5.05;1.92;;;;;;;14.80;67.37;99541.41;5090794;28;20294;-63
2023/08/08 02:12:28;;;;;;;4.33;1.63;;;;;;;14.74;66.64;99535.53;5090780;28;20213;-66
2023/08/08 02:14:58;;;;;;;4.13;1.33;;;;;;;14.69;66.83;99539.19;5092572;28;20325;-62
2023/08/08 02:17:27;;;;;;;3.95;1.55;;;;;;;14.70;67.00;99552.13;5086421;28;20228;-63
2023/08/08 02:19:55;;;;;;;4.05;1.60;;;;;;;14.66;66.65;99560.91;5093704;28;20208;-63
2023/08/08 02:22:23;;;;;;;3.08;1.75;;;;;;;14.59;67.04;99564.63;5092220;28;20205;-62
2023/08/08 02:24:51;;;;;;;2.33;1.27;;;;;;;14.58;66.74;99570.72;5083459;28;20267;-63
2023/08/08 02:27:19;;;;;;;2.57;1.60;;;;;;;14.57;66.92;99571.59;5100579;28;20615;-63
2023/08/08 02:29:47;;;;;;;4.03;1.47;;;;;;;14.60;66.77;99560.28;5090981;28;20258;-63
2023/08/08 02:32:16;;;;;;;2.67;1.70;;;;;;;14.61;66.52;99569.75;5093097;28;20291;-64
2023/08/08 02:34:44;;;;;;;3.22;1.70;;;;;;;14.59;66.69;99577.59;5095686;28;20208;-61
2023/08/08 02:37:12;;;;;;;1.95;1.40;;;;;;;14.54;66.97;99583.81;5089333;28;20562;-65
2023/08/08 02:39:40;;;;;;;5.33;1.63;;;;;;;14.49;67.14;99578.78;5087268;28;20345;-62
2023/08/08 02:42:08;;;;;;;3.77;1.90;;;;;;;14.44;67.19;99594.50;5090652;28;20212;-63
2023/08/08 02:44:36;;;;;;;4.77;1.77;;;;;;;14.41;67.08;99592.00;5091945;28;20196;-65
2023/08/08 02:47:05;;;;;;;3.33;1.80;;;;;;;14.41;67.15;99589.41;5091718;28;20208;-63
2023/08/08 02:49:34;;;;;;;3.33;1.95;;;;;;;14.35;67.20;99581.84;5089651;28;20211;-61
2023/08/08 02:52:02;;;;;;;4.97;1.87;;;;;;;14.31;67.33;99590.63;5087173;28;20235;-66
2023/08/08 02:54:30;;;;;;;3.27;1.27;;;;;;;14.25;66.88;99588.25;5090946;28;20682;-60
2023/08/08 02:56:58;;;;;;;2.80;1.70;;;;;;;14.26;67.50;99592.53;5092157;28;20647;-65
2023/08/08 02:59:26;;;;;;;3.77;1.60;;;;;;;14.27;67.05;99600.25;5088141;28;20211;-65
2023/08/08 03:01:54;;;;;;;4.05;1.60;;;;;;;14.25;67.05;99607.25;5092490;28;20212;-66
2023/08/08 03:04:22;;;;;;;6.20;1.83;;;;;;;14.22;66.99;99604.75;5092649;28;20282;-66
2023/08/08 03:06:52;;;;;;;2.93;1.57;;;;;;;14.25;66.29;99607.25;5091644;28;20201;-66
2023/08/08 03:09:20;;;;;;;2.43;1.60;;;;;;;14.23;66.53;99603.84;5085665;28;20686;-65
2023/08/08 03:11:48;;;;;;;3.65;1.60;;;;;;;14.22;66.24;99616.88;5088286;28;20663;-65
2023/08/08 03:14:16;;;;;;;3.00;1.90;;;;;;;14.22;66.21;99622.88;5086941;28;20446;-65
2023/08/08 03:16:44;;;;;;;3.77;1.60;;;;;;;14.19;66.18;99629.91;5090110;28;20285;-65
2023/08/08 03:19:13;;;;;;;3.07;1.50;;;;;;;14.21;66.29;99638.47;5094012;28;20250;-64
2023/08/08 03:21:41;;;;;;;3.05;1.52;;;;;;;14.17;65.92;99635.13;5091051;28;20232;-65
2023/08/08 03:24:10;;;;;;;2.47;1.70;;;;;;;14.14;66.05;99630.06;5087379;28;20727;-65
2023/08/08 03:26:38;;;;;;;3.00;1.73;;;;;;;14.13;66.33;99643.06;5092128;28;20679;-65
2023/08/08 03:29:09;;;;;;;2.80;1.73;;;;;;;14.13;66.27;99638.72;5086293;28;20212;-65
2023/08/08 03:31:37;;;;;;;3.93;1.50;;;;;;;14.11;66.34;99639.69;5078886;28;20201;-66
2023/08/08 03:34:05;;;;;;;4.63;1.90;;;;;;;14.06;66.58;99645.00;5085926;28;20220;-65
2023/08/08 03:36:34;;;;;;;6.43;2.07;;;;;;;14.02;66.62;99644.25;5090393;28;20265;-65
2023/08/08 03:39:03;;;;;;;3.73;1.57;;;;;;;14.06;66.60;99650.19;5088003;28;20200;-66
2023/08/08 03:41:33;;;;;;;2.67;1.60;;;;;;;14.07;66.35;99651.06;5090715;28;20651;-66
2023/08/08 03:44:02;;;;;;;6.03;1.70;;;;;;;14.05;66.42;99650.25;5093136;28;20564;-65
2023/08/08 03:46:30;;;;;;;2.83;1.50;;;;;;;14.02;66.29;99657.19;5090871;28;20201;-65
2023/08/08 03:48:58;;;;;;;3.37;1.70;;;;;;;14.01;66.32;99671.06;5090251;28;20733;-66
2023/08/08 03:51:26;;;;;;;3.93;1.90;;;;;;;13.98;66.72;99653.00;5090724;28;20216;-64
2023/08/08 03:53:54;;;;;;;3.70;1.57;;;;;;;13.97;66.69;99674.66;5086585;28;20915;-67
2023/08/08 03:56:22;;;;;;;3.97;1.67;;;;;;;13.97;66.82;99677.22;5089972;28;20575;-66
2023/08/08 03:58:52;;;;;;;2.67;1.57;;;;;;;13.97;66.92;99684.16;5090539;28;20228;-66
2023/08/08 04:01:20;;;;;;;3.83;1.70;;;;;;;13.92;66.81;99686.06;5084802;28;20201;-68
2023/08/08 04:03:48;;;;;;;5.03;1.70;;;;;;;13.95;67.17;99683.34;5085847;28;20286;-71
2023/08/08 04:06:16;;;;;;;4.23;1.57;;;;;;;13.99;66.98;99688.41;5088140;28;20216;-65
2023/08/08 04:08:44;;;;;;;2.30;1.47;;;;;;;14.06;66.24;99694.22;5092021;28;20205;-65
2023/08/08 04:11:12;;;;;;;4.00;1.60;;;;;;;14.09;65.96;99696.72;5098714;28;20216;-65
2023/08/08 04:13:40;;;;;;;2.67;1.40;;;;;;;14.13;66.07;99702.66;5093765;28;20202;-67
2023/08/08 04:16:09;;;;;;;3.37;1.43;;;;;;;14.15;66.05;99703.47;5091101;28;20614;-65
2023/08/08 04:18:37;;;;;;;2.97;1.40;;;;;;;14.11;66.30;99715.66;5085905;28;20207;-65
2023/08/08 04:21:05;;;;;;;5.17;1.67;;;;;;;14.10;66.31;99711.38;5090522;28;20691;-65
2023/08/08 04:23:33;;;;;;;4.90;1.50;;;;;;;14.17;66.42;99718.03;5090293;28;20598;-66
2023/08/08 04:26:01;;;;;;;4.43;1.70;;;;;;;14.26;65.47;99716.94;5084947;28;20212;-65
2023/08/08 04:28:29;;;;;;;3.93;1.83;;;;;;;14.32;65.52;99721.91;5080686;28;20201;-66
2023/08/08 04:30:57;;;;;;;3.93;1.70;;;;;;;14.38;65.08;99716.53;5089787;28;20201;-67
2023/08/08 04:33:27;;;;;;;6.37;2.07;;;;;;;14.38;64.85;99719.13;5087491;28;20230;-65
2023/08/08 04:35:55;;;;;;;5.80;1.87;;;;;;;14.40;64.93;99721.69;5084834;28;20215;-65
2023/08/08 04:38:23;;;;;;;6.13;1.97;;;;;;;14.42;65.10;99718.13;5091051;28;20204;-65
2023/08/08 04:40:51;;;;;;;3.30;1.40;;;;;;;14.50;64.98;99720.50;5092024;28;20204;-66
2023/08/08 04:43:19;;;;;;;3.73;1.93;;;;;;;14.59;64.62;99724.53;5089898;28;20291;-65
2023/08/08 04:45:47;;;;;;;2.07;1.40;;;;;;;14.68;64.47;99732.00;5091832;28;20209;-66
2023/08/08 04:48:15;;;;;;;3.77;1.50;;;;;;;14.78;64.25;99724.78;5088937;28;20201;-66
2023/08/08 04:50:46;;;;;;;5.57;1.77;;;;;;;14.84;63.45;99729.72;5091840;28;20263;-65
2023/08/08 04:53:14;;;;;;;5.60;1.60;;;;;;;14.85;63.88;99732.28;5085491;28;20644;-65
2023/08/08 04:55:42;;;;;;;5.80;1.83;;;;;;;14.94;63.45;99739.75;5087432;28;20212;-66
2023/08/08 04:58:10;;;;;;;3.00;1.40;;;;;;;14.98;63.36;99736.16;5088299;28;20546;-65
2023/08/08 05:00:38;;;;;;;4.40;1.70;;;;;;;15.06;63.16;99735.03;5091997;28;20196;-67
2023/08/08 05:03:06;;;;;;;6.50;1.67;;;;;;;15.15;62.74;99742.50;5086690;28;20272;-64
2023/08/08 05:05:34;;;;;;;3.07;1.30;;;;;;;15.18;61.94;99752.78;5087916;28;20204;-66
2023/08/08 05:08:04;;;;;;;5.13;2.00;;;;;;;15.10;62.14;99747.88;5090251;28;20232;-65
2023/08/08 05:10:32;;;;;;;2.60;1.60;;;;;;;15.03;62.46;99758.50;5086595;28;20600;-65
2023/08/08 05:13:00;;;;;;;4.97;1.93;;;;;;;14.96;62.76;99758.72;5090169;28;20228;-66
2023/08/08 05:15:28;;;;;;;3.43;1.60;;;;;;;14.92;63.22;99753.69;5089062;28;20224;-70
2023/08/08 05:17:57;;;;;;;4.63;1.60;;;;;;;14.91;62.93;99746.78;5094336;28;20283;-70
2023/08/08 05:20:25;;;;;;;2.53;1.37;;;;;;;14.93;63.33;99764.00;5090006;28;20717;-66
2023/08/08 05:22:53;;;;;;;2.43;1.73;;;;;;;14.93;62.87;99750.19;5093281;28;20216;-67
2023/08/08 05:25:23;;;;;;;5.63;1.20;;;;;;;15.03;62.90;99746.38;5092992;28;20209;-69
2023/08/08 05:27:51;;;;;;;3.13;1.70;;;;;;;15.10;62.53;99762.59;5092333;28;20200;-69
2023/08/08 05:30:19;;;;;;;3.00;1.50;;;;;;;15.15;62.35;99768.47;5090425;28;20213;-68
2023/08/08 05:32:47;;;;;;;3.73;1.40;;;;;;;15.30;62.74;99770.50;5092908;28;20214;-70
2023/08/08 05:35:15;;;;;;;6.47;1.70;;;;;;;15.48;61.93;99768.16;5090215;28;20315;-72
2023/08/08 05:37:43;;;;;;;7.95;2.03;;;;;;;15.56;60.96;99779.97;5091115;28;20327;-70
2023/08/08 05:40:12;;;;;;;3.67;1.90;;;;;;;15.62;60.29;99760.72;5090441;28;20240;-69
2023/08/08 05:42:41;;;;;;;4.57;1.60;;;;;;;15.69;59.74;99783.00;5088944;28;20208;-67
2023/08/08 05:45:10;;;;;;;5.47;1.40;;;;;;;15.62;60.31;99771.13;5086394;28;20655;-68
2023/08/08 05:47:38;;;;;;;5.40;1.63;;;;;;;15.60;60.52;99793.69;5090094;28;20299;-67
2023/08/08 05:50:07;;;;;;;2.60;1.40;;;;;;;15.59;60.17;99779.84;5094150;28;20287;-66
2023/08/08 05:52:35;;;;;;;4.47;1.50;;;;;;;15.66;61.01;99780.50;5091592;28;20288;-66
2023/08/08 05:55:03;;;;;;;1.97;1.13;;;;;;;15.72;59.87;99787.22;5058333;28;28246;-66
2023/08/08 05:57:31;;;;;;;3.53;1.43;;;;;;;15.67;59.78;99788.25;5046907;28;20221;-67
2023/08/08 06:00:00;;;;;;;5.00;2.05;;;;;;;15.63;60.24;99798.78;5036054;28;20974;-67
2023/08/08 06:02:30;;;;;;;2.90;1.50;;;;;;;15.63;60.39;99791.81;5027120;28;20213;-66
2023/08/08 06:04:58;;;;;;;5.97;1.50;;;;;;;15.64;60.21;99806.50;5027603;28;20202;-66
2023/08/08 06:07:26;;;;;;;3.65;1.50;;;;;;;15.79;59.93;99804.28;5026023;28;20241;-66
2023/08/08 06:09:54;;;;;;;6.25;1.75;;;;;;;15.74;59.53;99790.63;5026275;28;21959;-66
2023/08/08 06:12:23;;;;;;;3.85;1.45;;;;;;;15.81;60.07;99787.75;5031730;28;20222;-67
2023/08/08 06:14:51;;;;;;;4.32;1.52;;;;;;;15.90;59.04;99810.75;5030665;28;20198;-67
2023/08/08 06:17:23;;;;;;;3.87;1.80;;;;;;;15.94;59.05;99804.56;5030375;28;20211;-66
2023/08/08 06:19:51;;;;;;;4.38;1.58;;;;;;;15.98;58.58;99804.44;5033238;28;20210;-67
2023/08/08 06:22:19;;;;;;;4.72;1.73;;;;;;;16.04;58.27;99815.44;5029827;28;20235;-67
2023/08/08 06:24:51;;;;;;;4.70;1.73;;;;;;;15.88;58.66;99812.59;5033992;28;20206;-68
2023/08/08 06:27:19;;;;;;;3.92;1.67;;;;;;;15.86;59.58;99808.34;5033341;28;20716;-70
2023/08/08 06:29:47;;;;;;;6.40;1.80;;;;;;;15.96;58.71;99820.09;5030430;28;20678;-69
2023/08/08 06:32:15;;;;;;;3.35;1.50;;;;;;;15.88;58.97;99817.78;5033120;28;20249;-71
2023/08/08 06:34:44;;;;;;;3.05;1.70;;;;;;;15.87;58.86;99812.63;5032776;28;20307;-70
2023/08/08 06:37:13;;;;;;;5.18;1.48;;;;;;;16.00;59.25;99824.28;5032704;28;20554;-71
2023/08/08 06:39:41;;;;;;;3.88;1.83;;;;;;;16.05;58.59;99822.34;5028905;28;20565;-69
2023/08/08 06:42:09;;;;;;;3.45;1.60;;;;;;;16.38;58.55;99815.00;5030657;28;20218;-69
2023/08/08 06:44:42;;;;;;;2.78;1.65;;;;;;;16.68;56.62;99822.53;5033296;28;20209;-66
2023/08/08 06:47:11;;;;;;;7.03;1.88;;;;;;;16.72;55.62;99826.69;5026577;28;20584;-67
2023/08/08 06:49:39;;;;;;;5.53;1.80;;;;;;;16.57;55.71;99829.88;5033162;28;20618;-67
2023/08/08 06:52:09;;;;;;;4.63;1.75;;;;;;;16.55;56.55;99821.31;5033451;28;20210;-65
2023/08/08 06:54:37;;;;;;;6.03;1.77;;;;;;;16.81;57.84;99834.13;5027558;28;20233;-67
2023/08/08 06:57:06;;;;;;;4.45;2.00;;;;;;;16.94;54.29;99831.03;5025518;28;20226;-66
2023/08/08 06:59:34;;;;;;;2.58;1.45;;;;;;;17.34;53.84;99828.47;5032701;28;20207;-67
2023/08/08 07:02:02;;;;;;;1.75;1.25;;;;;;;17.44;53.31;99828.06;5028723;28;20214;-66
2023/08/08 07:04:30;;;;;;;5.00;1.70;;;;;;;17.94;51.43;99833.69;5022421;28;20199;-66
2023/08/08 07:06:58;;;;;;;2.70;1.60;;;;;;;18.17;51.76;99835.22;5031491;28;20205;-67
2023/08/08 07:09:27;;;;;;;5.15;1.88;;;;;;;18.50;51.61;99817.16;5031798;28;20224;-66
2023/08/08 07:11:56;;;;;;;7.72;1.52;;;;;;;18.85;49.54;99819.00;5030682;28;20277;-66
2023/08/08 07:14:24;;;;;;;4.90;1.70;;;;;;;19.21;48.04;99827.59;5030930;28;20672;-72
2023/08/08 07:16:53;;;;;;;3.88;1.52;;;;;;;19.53;46.96;99814.66;5030750;28;20241;-66
2023/08/08 07:19:21;;;;;;;2.30;1.55;;;;;;;19.42;45.90;99807.38;5028454;28;20218;-68
2023/08/08 07:21:50;;;;;;;2.90;1.58;;;;;;;19.52;46.21;99812.97;5024527;28;20728;-68
2023/08/08 07:24:18;;;;;;;5.22;1.80;;;;;;;19.60;46.33;99823.03;5032285;28;20210;-67
2023/08/08 07:26:48;;;;;;;2.13;1.40;;;;;;;19.64;45.72;99822.81;5030165;28;20202;-69
2023/08/08 07:29:16;;;;;;;6.13;1.75;;;;;;;19.67;46.56;99822.66;5023747;28;20195;-67
2023/08/08 07:31:44;;;;;;;4.10;1.45;;;;;;;19.53;45.84;99825.13;5030241;28;20203;-67
2023/08/08 07:34:12;;;;;;;4.20;1.20;;;;;;;19.27;47.00;99819.47;5024178;28;20613;-66
2023/08/08 07:36:40;;;;;;;4.65;1.70;;;;;;;19.36;47.32;99822.53;5027636;28;20616;-67
2023/08/08 07:39:09;;;;;;;5.50;1.65;;;;;;;19.15;46.19;99834.91;5026385;28;20309;-72
2023/08/08 07:41:37;;;;;;;4.95;1.02;;;;;;;18.83;47.44;99832.97;5027518;28;20195;-67
2023/08/08 07:44:08;;;;;;;4.55;1.55;;;;;;;18.70;47.75;99833.59;5027717;28;20298;-67
2023/08/08 07:46:36;;;;;;;6.47;1.63;;;;;;;18.42;47.67;99839.31;5026649;28;20630;-68
2023/08/08 07:49:05;;;;;;;2.05;1.60;;;;;;;18.04;49.32;99844.53;5031306;28;20268;-69
2023/08/08 07:51:33;;;;;;;1.83;1.33;;;;;;;17.82;49.67;99839.44;5027634;28;20203;-67
2023/08/08 07:54:01;;;;;;;5.07;1.70;;;;;;;17.85;50.51;99844.50;5031156;28;20205;-66
2023/08/08 07:56:29;;;;;;;1.77;1.30;;;;;;;18.04;48.78;99850.59;5031081;28;20214;-66
2023/08/08 07:58:57;;;;;;;4.60;1.90;;;;;;;17.92;49.16;99852.91;5029386;28;20268;-64
2023/08/08 08:01:27;;;;;;;3.47;1.50;;;;;;;17.81;49.36;99848.16;5026743;28;20256;-67
2023/08/08 08:03:55;;;;;;;2.80;1.58;;;;;;;17.73;49.84;99835.44;5024771;28;20302;-64
2023/08/08 08:06:23;;;;;;;3.60;1.23;;;;;;;17.62;49.65;99827.25;5025587;28;20206;-64
2023/08/08 08:08:53;;;;;;;5.75;1.77;;;;;;;17.68;49.06;99831.38;5029416;28;20199;-70
2023/08/08 08:11:21;;;;;;;4.30;1.70;;;;;;;17.92;49.45;99845.94;5028096;28;20253;-68
2023/08/08 08:13:49;;;;;;;3.00;1.52;;;;;;;18.08;49.04;99831.28;5029190;28;20206;-64
2023/08/08 08:16:18;;;;;;;2.97;1.58;;;;;;;18.61;47.56;99827.06;5027749;28;20260;-65
2023/08/08 08:18:48;;;;;;;3.83;1.58;;;;;;;19.30;46.04;99834.16;5031588;28;20260;-66
2023/08/08 08:21:17;;;;;;;5.10;1.52;;;;;;;20.83;41.31;99830.28;5027243;28;20321;-69
2023/08/08 08:23:46;;;;;;;5.75;1.50;;;;;;;21.85;39.91;99824.19;5029914;28;20205;-71
2023/08/08 08:26:14;;;;;;;3.75;1.27;;;;;;;22.41;39.07;99816.34;5030165;28;20232;-65
2023/08/08 08:28:42;;;;;;;3.03;1.52;;;;;;;23.33;35.97;99818.19;5029110;28;20218;-66
2023/08/08 08:31:11;;;;;;;3.25;1.55;;;;;;;23.53;36.07;99815.03;5028502;28;20210;-66
2023/08/08 08:33:39;;;;;;;6.70;1.83;;;;;;;22.67;36.63;99797.09;5028702;28;20206;-65
2023/08/08 08:36:08;;;;;;;1.85;1.50;;;;;;;22.12;38.13;99839.16;5030452;28;20206;-66
2023/08/08 08:38:38;;;;;;;3.40;1.25;;;;;;;21.55;38.83;99829.53;5029339;28;20253;-66
2023/08/08 08:41:06;;;;;;;5.85;2.03;;;;;;;21.22;40.07;99827.13;5030070;28;20260;-68
2023/08/08 08:43:34;;;;;;;4.38;1.33;;;;;;;21.03;40.35;99837.84;5030966;28;20214;-64
2023/08/08 08:46:04;;;;;;;2.13;1.65;;;;;;;20.91;40.47;99833.28;5025328;28;20199;-62
2023/08/08 08:48:32;;;;;;;2.25;1.17;;;;;;;20.55;40.80;99831.88;5027140;28;20728;-59
2023/08/08 08:51:00;;;;;;;1.52;1.30;;;;;;;20.47;42.72;99834.00;5029700;28;20650;-65
2023/08/08 08:53:30;;;;;;;6.88;2.92;;;;;;;20.35;42.78;99832.09;5027103;28;20210;-68
2023/08/08 08:55:59;;;;;;;3.95;1.45;;;;;;;19.83;42.73;99840.16;5017381;28;20202;-62
2023/08/08 08:58:28;;;;;;;2.83;1.23;;;;;;;19.47;43.63;99841.09;5029276;28;20708;-64
2023/08/08 09:00:59;;;;;;;4.40;1.08;;;;;;;19.18;43.96;99851.25;5026860;28;20653;-64
2023/08/08 09:03:27;;;;;;;5.05;1.60;;;;;;;19.14;44.40;99841.88;5023293;28;20619;-63
2023/08/08 09:05:56;;;;;;;2.20;1.30;;;;;;;19.20;44.08;99843.38;5023494;28;20203;-62
2023/08/08 09:08:24;;;;;;;6.55;1.70;;;;;;;19.18;44.61;99837.34;5025356;28;20713;-63
2023/08/08 09:10:56;;;;;;;6.35;1.55;;;;;;;19.15;44.39;99851.44;5023300;28;20234;-61
2023/08/08 09:13:25;;;;;;;3.08;1.40;;;;;;;19.13;44.52;99857.66;5030591;28;20207;-62
2023/08/08 09:15:55;;;;;;;2.92;1.45;;;;;;;19.05;44.25;99861.47;5030777;28;20221;-61
2023/08/08 09:18:25;;;;;;;5.72;1.30;;;;;;;18.95;44.38;99848.94;5030154;28;20620;-65
2023/08/08 09:20:53;;;;;;;3.72;1.27;;;;;;;18.94;44.10;99869.00;5032099;28;20720;-60
2023/08/08 09:23:22;;;;;;;2.67;1.23;;;;;;;19.10;44.02;99836.91;5031530;28;20674;-62
2023/08/08 09:25:50;;;;;;;4.38;1.83;;;;;;;18.95;43.83;99862.00;5032500;28;20293;-63
2023/08/08 09:28:19;;;;;;;3.00;1.02;;;;;;;18.80;44.47;99854.00;5031092;28;20202;-60
2023/08/08 09:30:47;;;;;;;1.92;1.15;;;;;;;19.31;43.87;99860.19;5034742;28;20301;-61
2023/08/08 09:33:16;;;;;;;3.78;1.10;;;;;;;19.82;42.59;99835.84;5033898;28;20206;-62
2023/08/08 09:35:45;;;;;;;7.65;1.42;;;;;;;20.04;41.69;99857.31;5028540;28;20210;-62
2023/08/08 09:38:13;;;;;;;2.58;1.38;;;;;;;20.28;39.80;99853.34;5032855;28;20651;-64
2023/08/08 09:40:41;;;;;;;6.32;1.33;;;;;;;19.96;39.96;99864.72;5033012;28;20215;-61
2023/08/08 09:43:09;;;;;;;2.60;0.80;;;;;;;19.65;40.16;99868.09;5031513;28;20284;-63
2023/08/08 09:45:41;;;;;;;2.75;1.30;;;;;;;19.30;40.41;99861.09;5032024;28;20293;-61
2023/08/08 09:48:10;;;;;;;1.95;1.10;;;;;;;18.83;40.81;99866.91;5031729;28;20707;-62
2023/08/08 09:50:39;;;;;;;5.57;1.10;;;;;;;18.54;41.45;99865.66;5032696;28;20260;-62
2023/08/08 09:53:08;;;;;;;2.20;1.42;;;;;;;18.38;42.04;99863.84;5027384;28;20253;-62
2023/08/08 09:55:36;;;;;;;6.13;1.42;;;;;;;18.28;42.74;99868.66;5033584;28;20207;-61
2023/08/08 09:58:06;;;;;;;2.58;1.25;;;;;;;18.14;43.92;99873.63;5031778;28;20225;-60
2023/08/08 10:00:35;;;;;;;1.40;1.08;;;;;;;18.17;44.14;99876.13;5031794;28;20218;-62
2023/08/08 10:03:05;;;;;;;4.13;1.20;;;;;;;18.20;42.68;99887.25;5033190;28;20195;-62
2023/08/08 10:05:34;;;;;;;3.17;0.90;;;;;;;18.09;42.95;99890.34;5032898;28;20202;-64
2023/08/08 10:08:02;;;;;;;4.63;1.50;;;;;;;18.02;43.54;99864.63;5031057;28;20217;-63
2023/08/08 10:10:31;;;;;;;3.58;1.35;;;;;;;19.04;43.39;99880.69;5026577;28;20199;-62
2023/08/08 10:13:00;;;;;;;2.88;1.27;;;;;;;20.35;38.00;99868.72;5026744;28;20202;-63
2023/08/08 10:15:29;;;;;;;3.75;1.27;;;;;;;21.33;36.15;99858.81;5025995;28;20712;-60
2023/08/08 10:17:58;;;;;;;4.35;1.38;;;;;;;21.86;34.97;99844.25;5026931;28;20705;-61
2023/08/08 10:20:28;;;;;;;2.75;1.25;;;;;;;22.23;33.39;99851.63;5029854;28;20264;-63
2023/08/08 10:22:57;;;;;;;3.05;1.10;;;;;;;21.53;34.79;99875.97;5023694;28;20244;-66
2023/08/08 10:25:28;;;;;;;3.58;1.33;;;;;;;20.49;36.63;99869.69;5031849;28;20206;-65
2023/08/08 10:28:04;;;;;;;2.28;1.02;;;;;;;19.97;38.25;99866.41;5032690;28;20281;-62
2023/08/08 10:30:54;;;;;;;2.80;1.10;;;;;;;20.19;38.21;99864.31;5032660;28;20673;-67
2023/08/08 10:33:26;;;;;;;4.53;1.15;;;;;;;21.31;36.40;99841.44;5029968;28;20202;-66
2023/08/08 10:36:22;;;;;;;2.88;1.30;;;;;;;22.19;34.70;99862.31;5034005;28;20210;-63
2023/08/08 10:38:52;;;;;;;2.05;0.90;;;;;;;22.36;33.37;99858.66;5032698;28;20227;-67
2023/08/08 10:41:22;;;;;;;1.60;1.00;;;;;;;22.71;32.06;99846.81;5033685;28;20201;-66
2023/08/08 10:43:52;;;;;;;3.00;0.95;;;;;;;23.48;30.14;99861.00;5022878;28;20208;-67
2023/08/08 10:46:29;;;;;;;1.23;1.10;;;;;;;23.95;29.04;99863.00;5030586;28;20608;-61
2023/08/08 10:48:59;;;;;;;2.40;1.20;;;;;;;22.90;30.19;99863.06;5021064;28;20265;-61
2023/08/08 10:51:39;;;;;;;1.90;1.17;;;;;;;22.75;31.42;99866.69;5030195;28;20260;-66
2023/08/08 10:54:12;;;;;;;4.20;1.40;;;;;;;23.30;30.75;99845.50;5032507;28;20215;-61
2023/08/08 10:56:41;;;;;;;5.43;0.90;;;;;;;23.34;30.63;99870.69;5026563;28;20211;-62
2023/08/08 10:59:18;;;;;;;2.35;0.90;;;;;;;23.99;29.62;99859.22;5030150;28;20225;-66
2023/08/08 11:01:50;;;;;;;3.60;1.58;;;;;;;24.83;28.67;99865.50;5032390;28;20226;-62
2023/08/08 11:04:21;;;;;;;1.55;0.93;;;;;;;25.50;27.95;99868.38;5029197;28;20240;-62
2023/08/08 11:06:53;;;;;;;2.22;0.90;;;;;;;25.53;27.52;99864.66;5027180;28;20210;-60
2023/08/08 11:09:23;;;;;;;1.98;1.00;;;;;;;25.30;28.06;99858.50;5021608;28;20207;-62
2023/08/08 11:11:51;;;;;;;2.92;1.00;;;;;;;24.22;28.88;99867.28;5032597;28;20289;-61
2023/08/08 11:14:21;;;;;;;1.92;1.02;;;;;;;23.21;30.46;99867.16;5032166;28;20634;-63
2023/08/08 11:16:52;;;;;;;3.03;1.13;;;;;;;23.01;31.56;99870.28;5033086;28;20565;-61
2023/08/08 11:19:20;;;;;;;1.75;0.80;;;;;;;23.35;31.59;99868.88;5025940;28;20226;-62
2023/08/08 11:21:49;;;;;;;2.78;1.20;;;;;;;23.61;30.71;99875.00;5031118;28;20244;-63
2023/08/08 11:24:19;;;;;;;2.58;1.00;;;;;;;24.08;28.97;99877.00;5021765;28;20207;-62
2023/08/08 11:26:48;;;;;;;1.10;1.00;;;;;;;24.10;28.26;99861.09;5029220;28;20217;-60
2023/08/08 11:29:17;;;;;;;0.65;0.65;;;;;;;23.90;28.25;99866.91;5031482;28;20225;-60
2023/08/08 11:31:45;;;;;;;2.05;0.60;;;;;;;23.18;29.38;99869.16;5031337;28;20206;-58
2023/08/08 11:34:17;;;;;;;4.47;1.00;;;;;;;22.65;30.60;99869.94;5025312;28;20211;-62
2023/08/08 11:36:47;;;;;;;3.05;1.13;;;;;;;22.15;30.99;99873.13;5031269;28;20213;-60
2023/08/08 11:39:17;;;;;;;3.15;1.02;;;;;;;21.43;31.21;99877.47;5024950;28;20227;-64
2023/08/08 11:41:46;;;;;;;1.85;1.10;;;;;;;20.89;32.94;99903.28;5031482;28;20225;-60